sensor_id;sensor_type;location;lat;lon;timestamp;temperature;humidity
14604;DHT22;7388;51.078;13.740;2023-05-07T00:01:42;16.30;44.60
14604;DHT22;7388;51.078;13.740;2023-05-07T00:04:08;16.30;43.90
14604;DHT22;7388;51.078;13.740;2023-05-07T00:06:34;16.20;44.10
14604;DHT22;7388;51.078;13.740;2023-05-07T00:09:00;16.20;44.20
14604;DHT22;7388;51.078;13.740;2023-05-07T00:11:27;16.10;44.50
14604;DHT22;7388;51.078;13.740;2023-05-07T00:13:53;16.10;44.50
14604;DHT22;7388;51.078;13.740;2023-05-07T00:16:19;16.10;45.00
14604;DHT22;7388;51.078;13.740;2023-05-07T00:18:45;16.10;45.10
14604;DHT22;7388;51.078;13.740;2023-05-07T00:21:11;16.10;45.00
14604;DHT22;7388;51.078;13.740;2023-05-07T00:23:36;16.10;45.00
14604;DHT22;7388;51.078;13.740;2023-05-07T00:26:03;16.10;44.70
14604;DHT22;7388;51.078;13.740;2023-05-07T00:28:29;16.10;44.50
14604;DHT22;7388;51.078;13.740;2023-05-07T00:30:54;16.10;44.70
14604;DHT22;7388;51.078;13.740;2023-05-07T00:33:20;16.10;44.60
14604;DHT22;7388;51.078;13.740;2023-05-07T00:35:47;16.10;44.40
14604;DHT22;7388;51.078;13.740;2023-05-07T00:38:13;16.10;44.30
14604;DHT22;7388;51.078;13.740;2023-05-07T00:40:39;16.10;44.40
14604;DHT22;7388;51.078;13.740;2023-05-07T00:43:06;16.10;44.50
14604;DHT22;7388;51.078;13.740;2023-05-07T00:45:33;16.10;44.40
14604;DHT22;7388;51.078;13.740;2023-05-07T00:48:02;16.10;44.50
14604;DHT22;7388;51.078;13.740;2023-05-07T00:50:28;16.10;44.30
14604;DHT22;7388;51.078;13.740;2023-05-07T00:52:55;16.00;44.30
14604;DHT22;7388;51.078;13.740;2023-05-07T00:55:22;16.10;44.30
14604;DHT22;7388;51.078;13.740;2023-05-07T00:57:50;16.10;44.50
14604;DHT22;7388;51.078;13.740;2023-05-07T01:00:16;16.10;44.20
14604;DHT22;7388;51.078;13.740;2023-05-07T01:02:42;16.10;44.30
14604;DHT22;7388;51.078;13.740;2023-05-07T01:05:14;16.10;44.20
14604;DHT22;7388;51.078;13.740;2023-05-07T01:07:42;16.10;44.10
14604;DHT22;7388;51.078;13.740;2023-05-07T01:10:09;16.10;44.20
14604;DHT22;7388;51.078;13.740;2023-05-07T01:12:37;16.10;45.00
14604;DHT22;7388;51.078;13.740;2023-05-07T01:15:05;16.10;44.10
14604;DHT22;7388;51.078;13.740;2023-05-07T01:17:39;16.10;43.90
14604;DHT22;7388;51.078;13.740;2023-05-07T01:20:06;16.10;44.00
14604;DHT22;7388;51.078;13.740;2023-05-07T01:22:37;16.10;43.70
14604;DHT22;7388;51.078;13.740;2023-05-07T01:25:04;16.00;43.70
14604;DHT22;7388;51.078;13.740;2023-05-07T01:27:30;16.00;44.00
14604;DHT22;7388;51.078;13.740;2023-05-07T01:29:56;16.10;43.80
14604;DHT22;7388;51.078;13.740;2023-05-07T01:32:29;16.10;43.80
14604;DHT22;7388;51.078;13.740;2023-05-07T01:34:58;16.10;43.70
14604;DHT22;7388;51.078;13.740;2023-05-07T01:37:25;16.10;43.70
14604;DHT22;7388;51.078;13.740;2023-05-07T01:39:52;16.10;43.70
14604;DHT22;7388;51.078;13.740;2023-05-07T01:42:19;16.10;43.80
14604;DHT22;7388;51.078;13.740;2023-05-07T01:44:45;16.00;44.70
14604;DHT22;7388;51.078;13.740;2023-05-07T01:47:12;16.00;43.90
14604;DHT22;7388;51.078;13.740;2023-05-07T01:49:39;16.10;44.00
14604;DHT22;7388;51.078;13.740;2023-05-07T01:52:05;16.00;44.10
14604;DHT22;7388;51.078;13.740;2023-05-07T01:54:31;16.00;44.10
14604;DHT22;7388;51.078;13.740;2023-05-07T01:56:57;16.00;44.10
14604;DHT22;7388;51.078;13.740;2023-05-07T01:59:23;16.00;43.90
14604;DHT22;7388;51.078;13.740;2023-05-07T02:01:48;16.00;43.60
14604;DHT22;7388;51.078;13.740;2023-05-07T02:04:14;16.00;43.70
14604;DHT22;7388;51.078;13.740;2023-05-07T02:06:40;16.00;43.70
14604;DHT22;7388;51.078;13.740;2023-05-07T02:09:06;16.00;43.60
14604;DHT22;7388;51.078;13.740;2023-05-07T02:11:32;16.00;43.50
14604;DHT22;7388;51.078;13.740;2023-05-07T02:13:57;16.00;43.50
14604;DHT22;7388;51.078;13.740;2023-05-07T02:16:23;15.90;43.50
14604;DHT22;7388;51.078;13.740;2023-05-07T02:18:49;15.90;43.60
14604;DHT22;7388;51.078;13.740;2023-05-07T02:21:15;15.90;43.60
14604;DHT22;7388;51.078;13.740;2023-05-07T02:23:40;15.90;43.50
14604;DHT22;7388;51.078;13.740;2023-05-07T02:26:06;15.90;43.50
14604;DHT22;7388;51.078;13.740;2023-05-07T02:28:32;15.80;43.60
14604;DHT22;7388;51.078;13.740;2023-05-07T02:31:02;15.80;43.80
14604;DHT22;7388;51.078;13.740;2023-05-07T02:33:28;15.80;43.90
14604;DHT22;7388;51.078;13.740;2023-05-07T02:35:54;15.80;43.80
14604;DHT22;7388;51.078;13.740;2023-05-07T02:38:20;15.80;43.70
14604;DHT22;7388;51.078;13.740;2023-05-07T02:40:45;15.80;43.90
14604;DHT22;7388;51.078;13.740;2023-05-07T02:43:11;15.70;44.00
14604;DHT22;7388;51.078;13.740;2023-05-07T02:45:37;15.70;43.90
14604;DHT22;7388;51.078;13.740;2023-05-07T02:48:03;15.70;44.00
14604;DHT22;7388;51.078;13.740;2023-05-07T02:50:30;15.70;43.90
14604;DHT22;7388;51.078;13.740;2023-05-07T02:52:58;15.70;43.80
14604;DHT22;7388;51.078;13.740;2023-05-07T02:55:24;15.60;43.90
14604;DHT22;7388;51.078;13.740;2023-05-07T02:57:50;15.60;44.20
14604;DHT22;7388;51.078;13.740;2023-05-07T03:00:17;15.70;44.00
14604;DHT22;7388;51.078;13.740;2023-05-07T03:02:44;15.70;43.90
14604;DHT22;7388;51.078;13.740;2023-05-07T03:05:10;15.70;43.90
14604;DHT22;7388;51.078;13.740;2023-05-07T03:07:37;15.70;43.90
14604;DHT22;7388;51.078;13.740;2023-05-07T03:10:03;15.60;43.60
14604;DHT22;7388;51.078;13.740;2023-05-07T03:12:29;15.60;43.50
14604;DHT22;7388;51.078;13.740;2023-05-07T03:14:55;15.50;43.90
14604;DHT22;7388;51.078;13.740;2023-05-07T03:17:21;15.50;44.10
14604;DHT22;7388;51.078;13.740;2023-05-07T03:19:47;15.50;44.00
14604;DHT22;7388;51.078;13.740;2023-05-07T03:22:13;15.40;44.00
14604;DHT22;7388;51.078;13.740;2023-05-07T03:24:39;15.40;44.10
14604;DHT22;7388;51.078;13.740;2023-05-07T03:27:05;15.40;44.30
14604;DHT22;7388;51.078;13.740;2023-05-07T03:29:30;15.40;44.40
14604;DHT22;7388;51.078;13.740;2023-05-07T03:31:56;15.40;44.30
14604;DHT22;7388;51.078;13.740;2023-05-07T03:34:22;15.40;44.30
14604;DHT22;7388;51.078;13.740;2023-05-07T03:36:51;15.40;44.00
14604;DHT22;7388;51.078;13.740;2023-05-07T03:39:17;15.30;44.10
14604;DHT22;7388;51.078;13.740;2023-05-07T03:41:42;15.30;44.30
14604;DHT22;7388;51.078;13.740;2023-05-07T03:44:08;15.30;44.30
14604;DHT22;7388;51.078;13.740;2023-05-07T03:46:34;15.20;44.30
14604;DHT22;7388;51.078;13.740;2023-05-07T03:49:00;15.20;44.30
14604;DHT22;7388;51.078;13.740;2023-05-07T03:51:26;15.20;44.30
14604;DHT22;7388;51.078;13.740;2023-05-07T03:53:52;15.20;44.30
14604;DHT22;7388;51.078;13.740;2023-05-07T03:56:19;15.20;44.60
14604;DHT22;7388;51.078;13.740;2023-05-07T03:58:44;15.10;44.60
14604;DHT22;7388;51.078;13.740;2023-05-07T04:01:11;15.20;44.50
14604;DHT22;7388;51.078;13.740;2023-05-07T04:03:37;15.10;44.60
14604;DHT22;7388;51.078;13.740;2023-05-07T04:06:03;15.10;45.40
14604;DHT22;7388;51.078;13.740;2023-05-07T04:08:29;15.10;45.10
14604;DHT22;7388;51.078;13.740;2023-05-07T04:10:56;15.10;45.20
14604;DHT22;7388;51.078;13.740;2023-05-07T04:13:21;15.10;45.00
14604;DHT22;7388;51.078;13.740;2023-05-07T04:15:47;15.10;45.00
14604;DHT22;7388;51.078;13.740;2023-05-07T04:18:14;15.10;45.00
14604;DHT22;7388;51.078;13.740;2023-05-07T04:20:41;15.10;45.20
14604;DHT22;7388;51.078;13.740;2023-05-07T04:23:07;15.10;45.20
14604;DHT22;7388;51.078;13.740;2023-05-07T04:25:33;15.10;45.30
14604;DHT22;7388;51.078;13.740;2023-05-07T04:27:59;15.10;45.10
14604;DHT22;7388;51.078;13.740;2023-05-07T04:30:25;15.10;45.00
14604;DHT22;7388;51.078;13.740;2023-05-07T04:32:51;15.10;45.10
14604;DHT22;7388;51.078;13.740;2023-05-07T04:35:17;15.20;45.10
14604;DHT22;7388;51.078;13.740;2023-05-07T04:37:43;15.20;45.00
14604;DHT22;7388;51.078;13.740;2023-05-07T04:40:09;15.20;44.90
14604;DHT22;7388;51.078;13.740;2023-05-07T04:42:35;15.30;45.00
14604;DHT22;7388;51.078;13.740;2023-05-07T04:45:01;15.30;44.80
14604;DHT22;7388;51.078;13.740;2023-05-07T04:47:27;15.30;44.90
14604;DHT22;7388;51.078;13.740;2023-05-07T04:49:53;15.40;45.00
14604;DHT22;7388;51.078;13.740;2023-05-07T04:52:19;15.40;43.90
14604;DHT22;7388;51.078;13.740;2023-05-07T04:54:44;15.30;43.70
14604;DHT22;7388;51.078;13.740;2023-05-07T04:57:10;15.20;44.10
14604;DHT22;7388;51.078;13.740;2023-05-07T04:59:36;15.20;44.30
14604;DHT22;7388;51.078;13.740;2023-05-07T05:02:02;15.20;44.60
14604;DHT22;7388;51.078;13.740;2023-05-07T05:04:30;15.30;44.80
14604;DHT22;7388;51.078;13.740;2023-05-07T05:06:56;15.20;44.70
14604;DHT22;7388;51.078;13.740;2023-05-07T05:09:21;15.30;44.70
14604;DHT22;7388;51.078;13.740;2023-05-07T05:11:47;15.30;44.70
14604;DHT22;7388;51.078;13.740;2023-05-07T05:14:13;15.40;44.60
14604;DHT22;7388;51.078;13.740;2023-05-07T05:16:39;15.30;44.10
14604;DHT22;7388;51.078;13.740;2023-05-07T05:19:05;15.40;44.20
14604;DHT22;7388;51.078;13.740;2023-05-07T05:21:31;15.40;44.40
14604;DHT22;7388;51.078;13.740;2023-05-07T05:23:57;15.40;44.30
14604;DHT22;7388;51.078;13.740;2023-05-07T05:26:23;15.40;44.10
14604;DHT22;7388;51.078;13.740;2023-05-07T05:28:49;15.40;44.00
14604;DHT22;7388;51.078;13.740;2023-05-07T05:31:16;15.50;43.80
14604;DHT22;7388;51.078;13.740;2023-05-07T05:33:42;15.50;43.80
14604;DHT22;7388;51.078;13.740;2023-05-07T05:36:09;15.50;43.80
14604;DHT22;7388;51.078;13.740;2023-05-07T05:38:36;15.50;43.80
14604;DHT22;7388;51.078;13.740;2023-05-07T05:41:02;15.40;43.30
14604;DHT22;7388;51.078;13.740;2023-05-07T05:43:27;15.40;43.40
14604;DHT22;7388;51.078;13.740;2023-05-07T05:45:53;15.30;43.20
14604;DHT22;7388;51.078;13.740;2023-05-07T05:48:20;15.20;43.50
14604;DHT22;7388;51.078;13.740;2023-05-07T05:50:46;15.10;43.60
14604;DHT22;7388;51.078;13.740;2023-05-07T05:53:12;15.10;43.80
14604;DHT22;7388;51.078;13.740;2023-05-07T05:55:37;15.10;43.80
14604;DHT22;7388;51.078;13.740;2023-05-07T05:58:03;15.10;43.60
14604;DHT22;7388;51.078;13.740;2023-05-07T06:00:29;15.10;43.90
14604;DHT22;7388;51.078;13.740;2023-05-07T06:02:55;15.10;43.40
14604;DHT22;7388;51.078;13.740;2023-05-07T06:05:21;15.10;43.40
14604;DHT22;7388;51.078;13.740;2023-05-07T06:07:46;15.20;43.00
14604;DHT22;7388;51.078;13.740;2023-05-07T06:10:12;15.20;42.90
14604;DHT22;7388;51.078;13.740;2023-05-07T06:12:39;15.20;43.30
14604;DHT22;7388;51.078;13.740;2023-05-07T06:15:05;15.20;43.10
14604;DHT22;7388;51.078;13.740;2023-05-07T06:17:31;15.30;43.30
14604;DHT22;7388;51.078;13.740;2023-05-07T06:19:57;15.30;43.00
14604;DHT22;7388;51.078;13.740;2023-05-07T06:22:23;15.20;42.90
14604;DHT22;7388;51.078;13.740;2023-05-07T06:24:48;15.20;43.00
14604;DHT22;7388;51.078;13.740;2023-05-07T06:27:14;15.20;43.20
14604;DHT22;7388;51.078;13.740;2023-05-07T06:29:40;15.20;43.00
14604;DHT22;7388;51.078;13.740;2023-05-07T06:32:10;15.30;43.10
14604;DHT22;7388;51.078;13.740;2023-05-07T06:34:36;15.40;43.00
14604;DHT22;7388;51.078;13.740;2023-05-07T06:37:01;15.40;42.70
14604;DHT22;7388;51.078;13.740;2023-05-07T06:39:27;15.40;43.00
14604;DHT22;7388;51.078;13.740;2023-05-07T06:41:53;15.40;43.40
14604;DHT22;7388;51.078;13.740;2023-05-07T06:44:19;15.40;42.50
14604;DHT22;7388;51.078;13.740;2023-05-07T06:46:44;15.30;42.40
14604;DHT22;7388;51.078;13.740;2023-05-07T06:49:12;15.30;42.60
14604;DHT22;7388;51.078;13.740;2023-05-07T06:51:37;15.30;42.60
14604;DHT22;7388;51.078;13.740;2023-05-07T06:54:03;15.30;42.60
14604;DHT22;7388;51.078;13.740;2023-05-07T06:56:30;15.40;42.70
14604;DHT22;7388;51.078;13.740;2023-05-07T06:58:56;15.40;43.00
14604;DHT22;7388;51.078;13.740;2023-05-07T07:01:22;15.40;43.00
14604;DHT22;7388;51.078;13.740;2023-05-07T07:03:47;15.40;43.00
14604;DHT22;7388;51.078;13.740;2023-05-07T07:06:13;15.40;42.90
14604;DHT22;7388;51.078;13.740;2023-05-07T07:08:39;15.30;42.80
14604;DHT22;7388;51.078;13.740;2023-05-07T07:11:05;15.20;42.90
14604;DHT22;7388;51.078;13.740;2023-05-07T07:13:31;15.20;42.80
14604;DHT22;7388;51.078;13.740;2023-05-07T07:15:57;15.20;42.80
14604;DHT22;7388;51.078;13.740;2023-05-07T07:18:23;15.10;43.30
14604;DHT22;7388;51.078;13.740;2023-05-07T07:20:48;15.20;43.10
14604;DHT22;7388;51.078;13.740;2023-05-07T07:23:14;15.20;43.00
14604;DHT22;7388;51.078;13.740;2023-05-07T07:25:40;15.30;42.70
14604;DHT22;7388;51.078;13.740;2023-05-07T07:28:06;15.30;42.60
14604;DHT22;7388;51.078;13.740;2023-05-07T07:30:32;15.30;42.40
14604;DHT22;7388;51.078;13.740;2023-05-07T07:32:58;15.40;42.40
14604;DHT22;7388;51.078;13.740;2023-05-07T07:35:31;15.50;42.70
14604;DHT22;7388;51.078;13.740;2023-05-07T07:37:58;15.60;42.40
14604;DHT22;7388;51.078;13.740;2023-05-07T07:40:24;15.60;41.70
14604;DHT22;7388;51.078;13.740;2023-05-07T07:42:50;15.60;41.90
14604;DHT22;7388;51.078;13.740;2023-05-07T07:45:16;15.70;41.90
14604;DHT22;7388;51.078;13.740;2023-05-07T07:47:42;15.70;41.60
14604;DHT22;7388;51.078;13.740;2023-05-07T07:50:08;15.70;41.60
14604;DHT22;7388;51.078;13.740;2023-05-07T07:52:34;15.80;41.30
14604;DHT22;7388;51.078;13.740;2023-05-07T07:55:00;15.70;41.30
14604;DHT22;7388;51.078;13.740;2023-05-07T07:57:26;15.70;41.90
14604;DHT22;7388;51.078;13.740;2023-05-07T07:59:52;15.80;41.70
14604;DHT22;7388;51.078;13.740;2023-05-07T08:02:18;15.80;41.50
14604;DHT22;7388;51.078;13.740;2023-05-07T08:04:44;15.70;41.40
14604;DHT22;7388;51.078;13.740;2023-05-07T08:07:10;15.70;41.40
14604;DHT22;7388;51.078;13.740;2023-05-07T08:09:37;15.60;41.30
14604;DHT22;7388;51.078;13.740;2023-05-07T08:12:04;15.70;41.60
14604;DHT22;7388;51.078;13.740;2023-05-07T08:14:30;15.80;41.70
14604;DHT22;7388;51.078;13.740;2023-05-07T08:16:55;15.80;41.60
14604;DHT22;7388;51.078;13.740;2023-05-07T08:19:21;15.90;41.50
14604;DHT22;7388;51.078;13.740;2023-05-07T08:21:48;15.90;41.40
14604;DHT22;7388;51.078;13.740;2023-05-07T08:24:14;15.90;40.90
14604;DHT22;7388;51.078;13.740;2023-05-07T08:26:40;15.80;41.00
14604;DHT22;7388;51.078;13.740;2023-05-07T08:29:06;15.90;41.30
14604;DHT22;7388;51.078;13.740;2023-05-07T08:31:32;16.00;41.20
14604;DHT22;7388;51.078;13.740;2023-05-07T08:33:58;16.00;41.00
14604;DHT22;7388;51.078;13.740;2023-05-07T08:36:24;16.00;41.20
14604;DHT22;7388;51.078;13.740;2023-05-07T08:38:51;16.10;40.50
14604;DHT22;7388;51.078;13.740;2023-05-07T08:41:18;16.10;40.30
14604;DHT22;7388;51.078;13.740;2023-05-07T08:43:50;16.00;39.80
14604;DHT22;7388;51.078;13.740;2023-05-07T08:46:21;16.00;39.70
14604;DHT22;7388;51.078;13.740;2023-05-07T08:48:51;16.00;40.40
14604;DHT22;7388;51.078;13.740;2023-05-07T08:51:20;15.90;40.30
14604;DHT22;7388;51.078;13.740;2023-05-07T08:53:48;15.90;40.40
14604;DHT22;7388;51.078;13.740;2023-05-07T08:56:14;15.90;40.30
14604;DHT22;7388;51.078;13.740;2023-05-07T08:58:44;15.80;40.40
14604;DHT22;7388;51.078;13.740;2023-05-07T09:01:13;15.70;40.60
14604;DHT22;7388;51.078;13.740;2023-05-07T09:03:40;15.70;40.70
14604;DHT22;7388;51.078;13.740;2023-05-07T09:06:06;15.80;40.90
14604;DHT22;7388;51.078;13.740;2023-05-07T09:08:35;15.80;40.80
14604;DHT22;7388;51.078;13.740;2023-05-07T09:11:02;15.80;40.60
14604;DHT22;7388;51.078;13.740;2023-05-07T09:13:28;15.80;40.60
14604;DHT22;7388;51.078;13.740;2023-05-07T09:15:54;15.80;40.50
14604;DHT22;7388;51.078;13.740;2023-05-07T09:18:20;15.80;40.60
14604;DHT22;7388;51.078;13.740;2023-05-07T09:20:46;15.80;41.00
14604;DHT22;7388;51.078;13.740;2023-05-07T09:23:12;15.90;41.00
14604;DHT22;7388;51.078;13.740;2023-05-07T09:25:38;15.80;40.20
14604;DHT22;7388;51.078;13.740;2023-05-07T09:28:04;15.90;40.40
14604;DHT22;7388;51.078;13.740;2023-05-07T09:30:33;15.90;40.20
14604;DHT22;7388;51.078;13.740;2023-05-07T09:32:59;15.90;40.40
14604;DHT22;7388;51.078;13.740;2023-05-07T09:35:27;15.90;40.20
14604;DHT22;7388;51.078;13.740;2023-05-07T09:37:58;16.00;40.70
14604;DHT22;7388;51.078;13.740;2023-05-07T09:40:28;16.00;40.30
14604;DHT22;7388;51.078;13.740;2023-05-07T09:42:55;16.00;40.10
14604;DHT22;7388;51.078;13.740;2023-05-07T09:45:28;16.00;39.70
14604;DHT22;7388;51.078;13.740;2023-05-07T09:47:56;16.00;40.70
14604;DHT22;7388;51.078;13.740;2023-05-07T09:50:26;16.00;40.10
14604;DHT22;7388;51.078;13.740;2023-05-07T09:52:54;16.10;40.20
14604;DHT22;7388;51.078;13.740;2023-05-07T09:55:21;16.10;39.40
14604;DHT22;7388;51.078;13.740;2023-05-07T09:57:50;16.20;39.80
14604;DHT22;7388;51.078;13.740;2023-05-07T10:00:19;16.30;40.10
14604;DHT22;7388;51.078;13.740;2023-05-07T10:02:50;16.40;39.50
14604;DHT22;7388;51.078;13.740;2023-05-07T10:05:21;16.40;39.50
14604;DHT22;7388;51.078;13.740;2023-05-07T10:07:48;16.40;39.80
14604;DHT22;7388;51.078;13.740;2023-05-07T10:10:15;16.30;39.30
14604;DHT22;7388;51.078;13.740;2023-05-07T10:12:41;16.30;39.60
14604;DHT22;7388;51.078;13.740;2023-05-07T10:15:11;16.30;39.70
14604;DHT22;7388;51.078;13.740;2023-05-07T10:17:38;16.30;39.60
14604;DHT22;7388;51.078;13.740;2023-05-07T10:20:05;16.30;39.70
14604;DHT22;7388;51.078;13.740;2023-05-07T10:22:46;16.40;39.60
14604;DHT22;7388;51.078;13.740;2023-05-07T10:25:20;16.50;39.60
14604;DHT22;7388;51.078;13.740;2023-05-07T10:27:48;16.70;39.70
14604;DHT22;7388;51.078;13.740;2023-05-07T10:33:07;16.70;38.30
14604;DHT22;7388;51.078;13.740;2023-05-07T10:35:45;16.50;38.50
14604;DHT22;7388;51.078;13.740;2023-05-07T10:38:12;16.60;38.60
14604;DHT22;7388;51.078;13.740;2023-05-07T10:40:38;16.60;39.30
14604;DHT22;7388;51.078;13.740;2023-05-07T10:43:05;16.70;39.00
14604;DHT22;7388;51.078;13.740;2023-05-07T10:45:32;16.80;38.80
14604;DHT22;7388;51.078;13.740;2023-05-07T10:48:14;16.90;38.80
14604;DHT22;7388;51.078;13.740;2023-05-07T10:50:41;16.90;38.20
14604;DHT22;7388;51.078;13.740;2023-05-07T10:55:46;17.10;38.10
14604;DHT22;7388;51.078;13.740;2023-05-07T10:58:25;17.20;38.20
14604;DHT22;7388;51.078;13.740;2023-05-07T11:01:00;17.40;37.10
14604;DHT22;7388;51.078;13.740;2023-05-07T11:03:26;17.40;37.20
14604;DHT22;7388;51.078;13.740;2023-05-07T11:06:12;17.50;37.90
14604;DHT22;7388;51.078;13.740;2023-05-07T11:08:55;17.60;37.40
14604;DHT22;7388;51.078;13.740;2023-05-07T11:11:46;17.70;37.20
14604;DHT22;7388;51.078;13.740;2023-05-07T11:14:14;17.70;37.00
14604;DHT22;7388;51.078;13.740;2023-05-07T11:16:41;17.80;37.10
14604;DHT22;7388;51.078;13.740;2023-05-07T11:19:08;17.70;36.30
14604;DHT22;7388;51.078;13.740;2023-05-07T11:21:38;17.80;36.90
14604;DHT22;7388;51.078;13.740;2023-05-07T11:24:07;17.70;37.00
14604;DHT22;7388;51.078;13.740;2023-05-07T11:26:46;17.70;36.50
14604;DHT22;7388;51.078;13.740;2023-05-07T11:29:22;17.70;36.30
14604;DHT22;7388;51.078;13.740;2023-05-07T11:31:49;17.70;36.70
14604;DHT22;7388;51.078;13.740;2023-05-07T11:34:24;17.80;36.40
14604;DHT22;7388;51.078;13.740;2023-05-07T11:36:50;17.80;35.80
14604;DHT22;7388;51.078;13.740;2023-05-07T11:39:31;17.70;36.30
14604;DHT22;7388;51.078;13.740;2023-05-07T11:42:01;17.60;36.00
14604;DHT22;7388;51.078;13.740;2023-05-07T11:44:44;17.50;36.50
14604;DHT22;7388;51.078;13.740;2023-05-07T11:47:11;17.50;36.80
14604;DHT22;7388;51.078;13.740;2023-05-07T11:49:42;17.60;36.60
14604;DHT22;7388;51.078;13.740;2023-05-07T11:52:08;17.60;36.90
14604;DHT22;7388;51.078;13.740;2023-05-07T11:54:37;17.70;36.80
14604;DHT22;7388;51.078;13.740;2023-05-07T11:57:03;17.80;36.30
14604;DHT22;7388;51.078;13.740;2023-05-07T11:59:29;17.70;36.30
14604;DHT22;7388;51.078;13.740;2023-05-07T12:01:58;17.80;36.70
14604;DHT22;7388;51.078;13.740;2023-05-07T12:04:24;17.90;37.40
14604;DHT22;7388;51.078;13.740;2023-05-07T12:06:54;17.90;36.20
14604;DHT22;7388;51.078;13.740;2023-05-07T12:09:21;17.90;36.30
14604;DHT22;7388;51.078;13.740;2023-05-07T12:11:47;18.00;36.50
14604;DHT22;7388;51.078;13.740;2023-05-07T12:14:13;18.10;36.80
14604;DHT22;7388;51.078;13.740;2023-05-07T12:16:42;18.10;36.80
14604;DHT22;7388;51.078;13.740;2023-05-07T12:19:08;18.20;36.40
14604;DHT22;7388;51.078;13.740;2023-05-07T12:21:38;18.20;36.40
14604;DHT22;7388;51.078;13.740;2023-05-07T12:24:05;18.30;36.50
14604;DHT22;7388;51.078;13.740;2023-05-07T12:26:30;18.30;36.00
14604;DHT22;7388;51.078;13.740;2023-05-07T12:28:59;18.30;36.50
14604;DHT22;7388;51.078;13.740;2023-05-07T12:31:27;18.40;36.50
14604;DHT22;7388;51.078;13.740;2023-05-07T12:33:53;18.50;36.80
14604;DHT22;7388;51.078;13.740;2023-05-07T12:36:19;18.60;36.20
14604;DHT22;7388;51.078;13.740;2023-05-07T12:38:49;18.60;36.20
14604;DHT22;7388;51.078;13.740;2023-05-07T12:41:15;18.70;36.30
14604;DHT22;7388;51.078;13.740;2023-05-07T12:43:44;18.70;36.60
14604;DHT22;7388;51.078;13.740;2023-05-07T12:46:11;18.70;36.20
14604;DHT22;7388;51.078;13.740;2023-05-07T12:48:43;18.60;36.00
14604;DHT22;7388;51.078;13.740;2023-05-07T12:51:11;18.70;36.30
14604;DHT22;7388;51.078;13.740;2023-05-07T12:53:42;18.80;36.10
14604;DHT22;7388;51.078;13.740;2023-05-07T12:56:08;19.00;36.20
14604;DHT22;7388;51.078;13.740;2023-05-07T12:58:35;19.00;35.60
14604;DHT22;7388;51.078;13.740;2023-05-07T13:01:04;19.20;35.80
14604;DHT22;7388;51.078;13.740;2023-05-07T13:03:32;19.40;36.20
14604;DHT22;7388;51.078;13.740;2023-05-07T13:06:08;19.60;35.50
14604;DHT22;7388;51.078;13.740;2023-05-07T13:08:41;19.80;35.00
14604;DHT22;7388;51.078;13.740;2023-05-07T13:11:11;19.80;34.80
14604;DHT22;7388;51.078;13.740;2023-05-07T13:13:39;19.90;34.40
14604;DHT22;7388;51.078;13.740;2023-05-07T13:16:07;19.80;33.90
14604;DHT22;7388;51.078;13.740;2023-05-07T13:18:33;19.80;34.20
14604;DHT22;7388;51.078;13.740;2023-05-07T13:21:00;19.90;34.40
14604;DHT22;7388;51.078;13.740;2023-05-07T13:23:26;19.90;34.10
14604;DHT22;7388;51.078;13.740;2023-05-07T13:25:52;20.00;33.50
14604;DHT22;7388;51.078;13.740;2023-05-07T13:28:19;20.00;33.70
14604;DHT22;7388;51.078;13.740;2023-05-07T13:30:46;20.00;34.20
14604;DHT22;7388;51.078;13.740;2023-05-07T13:33:12;20.00;34.20
14604;DHT22;7388;51.078;13.740;2023-05-07T13:35:38;20.00;33.60
14604;DHT22;7388;51.078;13.740;2023-05-07T13:38:04;19.80;32.60
14604;DHT22;7388;51.078;13.740;2023-05-07T13:40:29;19.60;33.20
14604;DHT22;7388;51.078;13.740;2023-05-07T13:42:57;19.60;34.30
14604;DHT22;7388;51.078;13.740;2023-05-07T13:45:24;19.60;34.50
14604;DHT22;7388;51.078;13.740;2023-05-07T13:47:51;19.70;34.30
14604;DHT22;7388;51.078;13.740;2023-05-07T13:50:17;19.80;33.80
14604;DHT22;7388;51.078;13.740;2023-05-07T13:52:44;19.80;33.20
14604;DHT22;7388;51.078;13.740;2023-05-07T13:55:20;19.80;33.80
14604;DHT22;7388;51.078;13.740;2023-05-07T13:57:46;19.80;33.70
14604;DHT22;7388;51.078;13.740;2023-05-07T14:00:13;19.70;33.30
14604;DHT22;7388;51.078;13.740;2023-05-07T14:02:40;19.60;33.10
14604;DHT22;7388;51.078;13.740;2023-05-07T14:05:06;19.50;33.30
14604;DHT22;7388;51.078;13.740;2023-05-07T14:07:32;19.50;33.60
14604;DHT22;7388;51.078;13.740;2023-05-07T14:09:58;19.50;33.60
14604;DHT22;7388;51.078;13.740;2023-05-07T14:12:24;19.50;34.00
14604;DHT22;7388;51.078;13.740;2023-05-07T14:14:50;19.40;33.10
14604;DHT22;7388;51.078;13.740;2023-05-07T14:17:17;19.30;33.70
14604;DHT22;7388;51.078;13.740;2023-05-07T14:19:43;19.30;34.20
14604;DHT22;7388;51.078;13.740;2023-05-07T14:22:09;19.40;34.30
14604;DHT22;7388;51.078;13.740;2023-05-07T14:24:35;19.50;34.70
14604;DHT22;7388;51.078;13.740;2023-05-07T14:27:00;19.50;34.20
14604;DHT22;7388;51.078;13.740;2023-05-07T14:29:26;19.50;34.00
14604;DHT22;7388;51.078;13.740;2023-05-07T14:31:52;19.50;33.80
14604;DHT22;7388;51.078;13.740;2023-05-07T14:34:18;19.50;34.40
14604;DHT22;7388;51.078;13.740;2023-05-07T14:36:43;19.40;33.90
14604;DHT22;7388;51.078;13.740;2023-05-07T14:39:09;19.40;33.00
14604;DHT22;7388;51.078;13.740;2023-05-07T14:41:35;19.40;34.00
14604;DHT22;7388;51.078;13.740;2023-05-07T14:44:01;19.50;34.20
14604;DHT22;7388;51.078;13.740;2023-05-07T14:46:29;19.60;34.00
14604;DHT22;7388;51.078;13.740;2023-05-07T14:48:56;19.60;33.60
14604;DHT22;7388;51.078;13.740;2023-05-07T14:51:22;19.60;33.40
14604;DHT22;7388;51.078;13.740;2023-05-07T14:53:50;19.50;33.20
14604;DHT22;7388;51.078;13.740;2023-05-07T14:56:16;19.40;34.00
14604;DHT22;7388;51.078;13.740;2023-05-07T14:58:42;19.40;34.10
14604;DHT22;7388;51.078;13.740;2023-05-07T15:01:08;19.20;33.20
14604;DHT22;7388;51.078;13.740;2023-05-07T15:03:34;19.00;33.80
14604;DHT22;7388;51.078;13.740;2023-05-07T15:06:00;19.00;34.60
14604;DHT22;7388;51.078;13.740;2023-05-07T15:08:26;19.00;34.30
14604;DHT22;7388;51.078;13.740;2023-05-07T15:10:52;19.00;34.30
14604;DHT22;7388;51.078;13.740;2023-05-07T15:13:17;18.90;34.30
14604;DHT22;7388;51.078;13.740;2023-05-07T15:15:44;18.90;34.20
14604;DHT22;7388;51.078;13.740;2023-05-07T15:18:10;18.80;34.40
14604;DHT22;7388;51.078;13.740;2023-05-07T15:20:36;18.70;34.30
14604;DHT22;7388;51.078;13.740;2023-05-07T15:23:02;18.60;34.90
14604;DHT22;7388;51.078;13.740;2023-05-07T15:25:30;18.60;35.40
14604;DHT22;7388;51.078;13.740;2023-05-07T15:27:58;18.70;35.00
14604;DHT22;7388;51.078;13.740;2023-05-07T15:30:24;18.60;34.40
14604;DHT22;7388;51.078;13.740;2023-05-07T15:32:50;18.50;34.70
14604;DHT22;7388;51.078;13.740;2023-05-07T15:35:16;18.50;34.70